createdAt,value
2016-05-29T00:00:00.510Z,89.23
2016-05-29T00:00:10.510Z,89.04
2016-05-29T00:00:20.510Z,88.84
2016-05-29T00:00:30.370Z,88.84
2016-05-29T00:00:40.526Z,88.65
2016-05-29T00:00:50.529Z,88.75
2016-05-29T00:01:00.545Z,88.84
2016-05-29T00:01:10.591Z,88.84
2016-05-29T00:01:20.545Z,88.84
2016-05-29T00:01:30.404Z,88.75
2016-05-29T00:01:48.376Z,88.75
2016-05-29T00:01:58.313Z,88.75
2016-05-29T00:02:08.313Z,88.84
2016-05-29T00:02:18.329Z,88.9
2016-05-29T00:02:28.329Z,89.13
2016-05-29T00:02:38.344Z,88.94
2016-05-29T00:02:48.331Z,88.61
2016-05-29T00:02:58.190Z,88.61
2016-05-29T00:03:08.346Z,88.94
2016-05-29T00:03:18.346Z,88.46
2016-05-29T00:03:28.346Z,88.32
2016-05-29T00:03:38.362Z,88.51
2016-05-29T00:03:57.365Z,89.04
2016-05-29T00:04:07.334Z,88.8
2016-05-29T00:04:17.178Z,89.04
2016-05-29T00:04:27.349Z,89.09
2016-05-29T00:04:37.349Z,88.32
2016-05-29T00:04:47.352Z,88.56
2016-05-29T00:04:57.384Z,89.09
2016-05-29T00:05:07.399Z,89.18
2016-05-29T00:05:17.368Z,88.99
2016-05-29T00:05:27.368Z,88.51
2016-05-29T00:05:37.899Z,88.56
2016-05-29T00:05:47.418Z,89.13
2016-05-29T00:05:57.246Z,89.09
2016-05-29T00:06:07.824Z,88.61
2016-05-29T00:06:17.402Z,88.51
2016-05-29T00:06:27.402Z,88.51
2016-05-29T00:06:37.402Z,88.7
2016-05-29T00:06:47.420Z,88.99
2016-05-29T00:06:57.420Z,88.7
2016-05-29T00:07:07.264Z,88.42
2016-05-29T00:07:17.436Z,88.32
2016-05-29T00:07:27.436Z,88.7
2016-05-29T00:07:37.436Z,88.7
2016-05-29T00:07:47.454Z,88.7
2016-05-29T00:07:57.454Z,88.51
2016-05-29T00:08:07.454Z,88.42
2016-05-29T00:08:17.454Z,88.37
2016-05-29T00:08:27.470Z,89.09
2016-05-29T00:08:37.470Z,88.61
2016-05-29T00:08:47.473Z,88.8
2016-05-29T00:08:57.488Z,88.7
2016-05-29T00:09:07.488Z,88.8
2016-05-29T00:09:17.488Z,88.8
2016-05-29T00:09:27.504Z,88.61
2016-05-29T00:09:37.504Z,88.9
2016-05-29T00:09:47.506Z,88.51
2016-05-29T00:09:57.662Z,88.7
2016-05-29T00:10:07.522Z,88.32
2016-05-29T00:10:17.522Z,88.23
2016-05-29T00:10:27.522Z,88.27
2016-05-29T00:10:37.522Z,88.27
2016-05-29T00:10:47.540Z,88.13
2016-05-29T00:10:57.556Z,88.27
2016-05-29T00:11:07.556Z,88.37
2016-05-29T00:11:17.556Z,88.46
2016-05-29T00:11:27.556Z,88.46
2016-05-29T00:11:37.556Z,88.56
2016-05-29T00:11:47.574Z,88.46
2016-05-29T00:11:57.574Z,88.56
2016-05-29T00:12:07.574Z,88.46
2016-05-29T00:12:17.433Z,88.46
2016-05-29T00:12:27.589Z,88.56
2016-05-29T00:12:37.589Z,88.46
2016-05-29T00:12:47.609Z,88.65
2016-05-29T00:12:57.609Z,88.65
2016-05-29T00:13:07.609Z,88.56
2016-05-29T00:13:17.624Z,88.32
2016-05-29T00:13:27.624Z,88.56
2016-05-29T00:13:37.468Z,88.75
2016-05-29T00:13:47.626Z,88.65
2016-05-29T00:13:57.486Z,88.46
2016-05-29T00:14:07.642Z,88.51
2016-05-29T00:14:17.642Z,88.65
2016-05-29T00:14:27.658Z,88.8
2016-05-29T00:14:37.658Z,88.56
2016-05-29T00:14:47.660Z,88.75
2016-05-29T00:14:57.675Z,88.56
2016-05-29T00:15:07.675Z,88.56
2016-05-29T00:15:17.675Z,88.27
2016-05-29T00:15:27.691Z,88.37
2016-05-29T00:15:37.535Z,88.42
2016-05-29T00:15:47.538Z,88.37
2016-05-29T00:15:57.553Z,88.46
2016-05-29T00:16:07.553Z,88.27
2016-05-29T00:16:17.710Z,88.46
2016-05-29T00:16:27.710Z,88.27
2016-05-29T00:16:37.725Z,88.56
2016-05-29T00:16:47.728Z,88.56
2016-05-29T00:16:57.728Z,88.37
2016-05-29T00:17:07.744Z,88.17
2016-05-29T00:17:17.744Z,88.46
2016-05-29T00:17:27.744Z,88.46
2016-05-29T00:17:37.744Z,88.46
2016-05-29T00:17:47.762Z,88.65
2016-05-29T00:17:57.762Z,88.56
2016-05-29T00:18:07.762Z,88.46
2016-05-29T00:18:17.606Z,88.08
2016-05-29T00:18:27.778Z,88.08
2016-05-29T00:18:37.778Z,87.98
2016-05-29T00:18:47.797Z,87.7
2016-05-29T00:18:57.797Z,88.17
2016-05-29T00:19:07.797Z,88.46
2016-05-29T00:19:17.797Z,88.17
2016-05-29T00:19:27.656Z,88.08
2016-05-29T00:19:37.812Z,88.08
2016-05-29T00:19:47.674Z,88.46
2016-05-29T00:19:58.408Z,88.56
2016-05-29T00:20:07.892Z,88.56
2016-05-29T00:20:18.799Z,88.27
2016-05-29T00:20:27.908Z,88.56
2016-05-29T00:20:37.846Z,88.08
2016-05-29T00:20:47.849Z,88.08
2016-05-29T00:20:58.130Z,87.98
2016-05-29T00:21:08.286Z,88.37
2016-05-29T00:21:17.880Z,88.08
2016-05-29T00:21:27.864Z,88.56
2016-05-29T00:21:37.895Z,88.08
2016-05-29T00:21:47.883Z,88.08
2016-05-29T00:21:57.742Z,88.37
2016-05-29T00:22:07.727Z,88.08
2016-05-29T00:22:17.742Z,88.37
2016-05-29T00:22:27.898Z,88.46
2016-05-29T00:22:37.898Z,88.56
2016-05-29T00:22:47.916Z,88.17
2016-05-29T00:22:57.916Z,88.46
2016-05-29T00:23:07.932Z,88.46
2016-05-29T00:23:17.932Z,88.27
2016-05-29T00:23:27.932Z,88.46
2016-05-29T00:23:37.932Z,88.37
2016-05-29T00:23:47.778Z,88.46
2016-05-29T00:23:57.794Z,88.46
2016-05-29T00:24:07.950Z,88.46
2016-05-29T00:24:17.966Z,88.56
2016-05-29T00:24:27.966Z,88.37
2016-05-29T00:24:37.810Z,88.46
2016-05-29T00:24:47.985Z,88.46
2016-05-29T00:24:57.985Z,88.56
2016-05-29T00:25:07.985Z,88.65
2016-05-29T00:25:17.985Z,88.65
2016-05-29T00:25:28.000Z,88.46
2016-05-29T00:25:38.000Z,88.46
2016-05-29T00:25:48.018Z,88.65
2016-05-29T00:25:58.002Z,88.56
2016-05-29T00:26:07.862Z,88.08
2016-05-29T00:26:18.033Z,87.88
2016-05-29T00:26:28.018Z,88.17
2016-05-29T00:26:38.033Z,88.08
2016-05-29T00:26:48.036Z,88.56
2016-05-29T00:26:58.036Z,88.56
2016-05-29T00:27:08.052Z,88.46
2016-05-29T00:27:18.052Z,88.56
2016-05-29T00:27:28.052Z,88.27
2016-05-29T00:27:38.068Z,88.56
2016-05-29T00:27:48.070Z,88.56
2016-05-29T00:27:58.070Z,88.17
2016-05-29T00:28:08.085Z,88.56
2016-05-29T00:28:18.085Z,88.27
2016-05-29T00:28:28.085Z,88.46
2016-05-29T00:28:38.117Z,88.27
2016-05-29T00:28:48.104Z,88.27
2016-05-29T00:28:58.104Z,88.37
2016-05-29T00:29:08.104Z,88.56
2016-05-29T00:29:18.120Z,88.56
2016-05-29T00:29:27.995Z,88.56
2016-05-29T00:29:37.963Z,88.46
2016-05-29T00:29:47.982Z,88.37
2016-05-29T00:29:58.138Z,88.56
2016-05-29T00:30:08.138Z,88.17
2016-05-29T00:30:17.998Z,88.46
2016-05-29T00:30:28.154Z,88.56
2016-05-29T00:30:37.998Z,88.75
2016-05-29T00:30:48.157Z,88.37
2016-05-29T00:30:58.172Z,88.56
2016-05-29T00:31:08.172Z,88.84
2016-05-29T00:31:18.172Z,88.84
2016-05-29T00:31:28.188Z,88.65
2016-05-29T00:31:38.188Z,88.56
2016-05-29T00:31:48.190Z,88.37
2016-05-29T00:31:58.190Z,88.37
2016-05-29T00:32:08.206Z,88.46
2016-05-29T00:32:18.049Z,88.37
2016-05-29T00:32:28.065Z,88.37
2016-05-29T00:32:38.221Z,88.27
2016-05-29T00:32:48.224Z,88.27
2016-05-29T00:32:58.224Z,88.27
2016-05-29T00:33:08.084Z,88.37
2016-05-29T00:33:18.240Z,88.75
2016-05-29T00:33:28.240Z,88.27
2016-05-29T00:33:38.099Z,88.17
2016-05-29T00:33:48.259Z,88.56
2016-05-29T00:33:58.102Z,88.27
2016-05-29T00:34:08.259Z,88.27
2016-05-29T00:34:18.274Z,88.46
2016-05-29T00:34:28.118Z,88.37
2016-05-29T00:34:38.274Z,88.27
2016-05-29T00:34:48.293Z,88.56
2016-05-29T00:34:58.152Z,88.65
2016-05-29T00:35:08.746Z,88.27
2016-05-29T00:35:18.152Z,88.56
2016-05-29T00:35:28.308Z,88.46
2016-05-29T00:35:39.199Z,88.27
2016-05-29T00:35:48.248Z,88.23
2016-05-29T00:35:58.326Z,88.37
2016-05-29T00:36:08.748Z,88.27
2016-05-29T00:36:18.342Z,88.37
2016-05-29T00:36:28.342Z,88.37
2016-05-29T00:36:38.185Z,88.32
2016-05-29T00:36:48.345Z,88.56
2016-05-29T00:36:58.360Z,88.37
2016-05-29T00:37:08.360Z,88.37
2016-05-29T00:37:18.376Z,88.37
2016-05-29T00:37:28.376Z,88.27
2016-05-29T00:37:38.376Z,88.37
2016-05-29T00:37:48.378Z,88.46
2016-05-29T00:37:58.378Z,88.84
2016-05-29T00:38:08.394Z,88.37
2016-05-29T00:38:18.394Z,88.56
2016-05-29T00:38:28.237Z,88.46
2016-05-29T00:38:38.409Z,88.42
2016-05-29T00:38:48.412Z,88.46
2016-05-29T00:38:58.272Z,88.56
2016-05-29T00:39:08.428Z,88.56
2016-05-29T00:39:18.428Z,88.56
2016-05-29T00:39:28.443Z,88.27
2016-05-29T00:39:38.428Z,88.46
2016-05-29T00:39:48.446Z,88.37
2016-05-29T00:39:58.446Z,88.56
2016-05-29T00:40:08.446Z,88.37
2016-05-29T00:40:18.462Z,88.46
2016-05-29T00:40:28.462Z,88.27
2016-05-29T00:40:38.462Z,88.27
2016-05-29T00:40:48.481Z,88.37
2016-05-29T00:40:58.481Z,88.27
2016-05-29T00:41:08.481Z,88.27
2016-05-29T00:41:18.512Z,88.37
2016-05-29T00:41:28.496Z,88.37
2016-05-29T00:41:38.512Z,88.37
2016-05-29T00:41:48.498Z,88.37
2016-05-29T00:41:58.514Z,88.17
2016-05-29T00:42:08.514Z,88.37
2016-05-29T00:42:18.514Z,88.37
2016-05-29T00:42:28.530Z,88.75
2016-05-29T00:42:38.545Z,88.75
2016-05-29T00:42:48.533Z,88.56
2016-05-29T00:42:58.548Z,88.37
2016-05-29T00:43:08.548Z,88.65
2016-05-29T00:43:18.548Z,88.37
2016-05-29T00:43:28.564Z,88.27
2016-05-29T00:43:38.564Z,88.27
2016-05-29T00:43:48.567Z,88.65
2016-05-29T00:43:58.567Z,88.27
2016-05-29T00:44:08.582Z,88.27
2016-05-29T00:44:18.426Z,88.65
2016-05-29T00:44:28.598Z,88.27
2016-05-29T00:44:38.442Z,88.56
2016-05-29T00:44:48.600Z,88.27
2016-05-29T00:44:58.616Z,88.56
2016-05-29T00:45:08.616Z,88.27
2016-05-29T00:45:18.616Z,88.56
2016-05-29T00:45:28.616Z,88.27
2016-05-29T00:45:38.631Z,88.56
2016-05-29T00:45:48.634Z,88.27
2016-05-29T00:45:58.634Z,88.27
2016-05-29T00:46:08.634Z,88.37
2016-05-29T00:46:18.634Z,88.37
2016-05-29T00:46:28.650Z,88.37
2016-05-29T00:46:38.494Z,88.37
2016-05-29T00:46:48.669Z,88.37
2016-05-29T00:46:58.669Z,88.37
2016-05-29T00:47:08.512Z,88.27
2016-05-29T00:47:18.669Z,88.37
2016-05-29T00:47:28.528Z,88.27
2016-05-29T00:47:38.684Z,88.56
2016-05-29T00:47:48.686Z,88.56
2016-05-29T00:47:58.717Z,88.37
2016-05-29T00:48:08.702Z,88.94
2016-05-29T00:48:18.702Z,88.46
2016-05-29T00:48:28.717Z,89.04
2016-05-29T00:48:38.717Z,88.75
2016-05-29T00:48:48.720Z,88.84
2016-05-29T00:48:58.720Z,88.65
2016-05-29T00:49:08.580Z,88.84
2016-05-29T00:49:18.736Z,88.65
2016-05-29T00:49:28.736Z,88.84
2016-05-29T00:49:38.752Z,89.13
2016-05-29T00:49:48.598Z,88.37
2016-05-29T00:49:58.755Z,88.37
2016-05-29T00:50:08.864Z,88.94
2016-05-29T00:50:18.927Z,88.94
2016-05-29T00:50:28.630Z,88.65
2016-05-29T00:50:38.786Z,88.75
2016-05-29T00:50:48.788Z,88.94
2016-05-29T00:50:58.819Z,88.37
2016-05-29T00:51:08.804Z,88.56
2016-05-29T00:51:18.804Z,88.65
2016-05-29T00:51:28.804Z,88.37
2016-05-29T00:51:38.804Z,88.56
2016-05-29T00:51:48.823Z,88.08
2016-05-29T00:51:58.823Z,88.17
2016-05-29T00:52:08.823Z,88.27
2016-05-29T00:52:18.839Z,88.56
2016-05-29T00:52:28.839Z,88.56
2016-05-29T00:52:38.683Z,88.56
2016-05-29T00:52:48.841Z,88.46
2016-05-29T00:52:58.700Z,88.37
2016-05-29T00:53:08.872Z,88.37
2016-05-29T00:53:18.856Z,88.56
2016-05-29T00:53:28.872Z,88.56
2016-05-29T00:53:38.872Z,88.56
2016-05-29T00:53:48.891Z,88.56
2016-05-29T00:53:58.875Z,88.37
2016-05-29T00:54:08.891Z,88.27
2016-05-29T00:54:18.734Z,88.37
2016-05-29T00:54:28.891Z,88.27
2016-05-29T00:54:38.906Z,88.65
2016-05-29T00:54:48.908Z,88.27
2016-05-29T00:54:58.924Z,88.56
2016-05-29T00:55:08.908Z,88.37
2016-05-29T00:55:18.924Z,88.46
2016-05-29T00:55:28.924Z,88.56
2016-05-29T00:55:38.940Z,88.75
2016-05-29T00:55:48.943Z,88.56
2016-05-29T00:55:58.943Z,88.46
2016-05-29T00:56:08.802Z,88.27
2016-05-29T00:56:18.974Z,88.27
2016-05-29T00:56:28.958Z,88.37
2016-05-29T00:56:38.974Z,88.37
2016-05-29T00:56:48.820Z,88.75
2016-05-29T00:56:58.976Z,88.75
2016-05-29T00:57:08.835Z,88.56
2016-05-29T00:57:18.976Z,88.65
2016-05-29T00:57:28.991Z,88.46
2016-05-29T00:57:38.851Z,88.51
2016-05-29T00:57:49.011Z,88.7
2016-05-29T00:57:59.011Z,88.8
2016-05-29T00:58:09.011Z,88.51
2016-05-29T00:58:19.011Z,88.51
2016-05-29T00:58:29.027Z,88.61
2016-05-29T00:58:39.042Z,88.61
2016-05-29T00:58:49.044Z,88.84
2016-05-29T00:58:59.044Z,88.8
2016-05-29T00:59:09.044Z,88.8
2016-05-29T00:59:19.060Z,88.8
2016-05-29T00:59:29.060Z,88.8
2016-05-29T00:59:39.076Z,88.7
2016-05-29T00:59:49.078Z,88.8
2016-05-29T00:59:59.062Z,88.61
2016-05-29T01:00:09.093Z,88.8
2016-05-29T01:00:19.078Z,88.51
2016-05-29T01:00:29.078Z,88.7
2016-05-29T01:00:38.937Z,88.9
2016-05-29T01:00:49.113Z,88.9
2016-05-29T01:00:59.097Z,88.8
2016-05-29T01:01:09.113Z,88.8
2016-05-29T01:01:19.113Z,88.9
2016-05-29T01:01:29.113Z,88.8
2016-05-29T01:01:39.113Z,88.8
2016-05-29T01:01:49.130Z,88.7
2016-05-29T01:01:59.130Z,88.9
2016-05-29T01:02:09.162Z,88.7
2016-05-29T01:02:19.146Z,88.99
2016-05-29T01:02:29.162Z,88.8
2016-05-29T01:02:39.146Z,88.61
2016-05-29T01:02:49.165Z,88.8
2016-05-29T01:02:59.008Z,88.9
2016-05-29T01:03:09.165Z,89.28
2016-05-29T01:03:19.024Z,89.37
2016-05-29T01:03:29.180Z,89.37
2016-05-29T01:03:39.180Z,89.18
2016-05-29T01:03:49.182Z,89.37
2016-05-29T01:03:59.042Z,89.18
2016-05-29T01:04:09.198Z,89.09
2016-05-29T01:04:19.198Z,89.09
2016-05-29T01:04:29.214Z,89.28
2016-05-29T01:04:39.214Z,89.28
2016-05-29T01:04:49.217Z,89.37
2016-05-29T01:04:59.076Z,89.57
2016-05-29T01:05:09.388Z,89.47
2016-05-29T01:05:20.076Z,89.86
2016-05-29T01:05:29.248Z,89.76
2016-05-29T01:05:39.248Z,89.86
2016-05-29T01:05:49.251Z,89.66
2016-05-29T01:05:59.391Z,90.05
2016-05-29T01:06:09.360Z,89.95
2016-05-29T01:06:19.266Z,90.33
2016-05-29T01:06:29.266Z,89.86
2016-05-29T01:06:39.282Z,90.23
2016-05-29T01:06:49.285Z,90.14
2016-05-29T01:06:59.285Z,89.86
2016-05-29T01:07:09.301Z,89.86
2016-05-29T01:07:19.301Z,90.05
2016-05-29T01:07:29.301Z,89.81
2016-05-29T01:07:39.301Z,90.48
2016-05-29T01:07:49.318Z,90.23
2016-05-29T01:07:59.318Z,90.09
2016-05-29T01:08:09.318Z,90.23
2016-05-29T01:08:19.318Z,90.09
2016-05-29T01:08:29.350Z,90.29
2016-05-29T01:08:39.334Z,90.67
2016-05-29T01:08:49.353Z,90.77
2016-05-29T01:08:59.353Z,90.43
2016-05-29T01:09:09.353Z,90.67
2016-05-29T01:09:19.353Z,90.58
2016-05-29T01:09:29.212Z,90.29
2016-05-29T01:09:39.368Z,90.19
2016-05-29T01:09:49.370Z,90.86
2016-05-29T01:09:59.386Z,90.96
2016-05-29T01:10:09.230Z,91.05
2016-05-29T01:10:19.386Z,90.86
2016-05-29T01:10:29.401Z,91.05
2016-05-29T01:10:39.401Z,91.25
2016-05-29T01:10:49.404Z,91.15
2016-05-29T01:10:59.404Z,91.15
2016-05-29T01:11:09.420Z,91.34
2016-05-29T01:11:19.420Z,91.44
2016-05-29T01:11:29.420Z,91.34
2016-05-29T01:11:39.436Z,91.44
2016-05-29T01:11:49.439Z,91.34
2016-05-29T01:11:59.298Z,91.05
2016-05-29T01:12:09.454Z,91.44
2016-05-29T01:12:19.454Z,90.86
2016-05-29T01:12:29.470Z,91.05
2016-05-29T01:12:39.454Z,90.96
2016-05-29T01:12:49.472Z,90.96
2016-05-29T01:12:59.316Z,91.34
2016-05-29T01:13:09.331Z,91.53
2016-05-29T01:13:19.488Z,91.63
2016-05-29T01:13:29.488Z,91.82
2016-05-29T01:13:39.488Z,91.53
2016-05-29T01:13:49.506Z,92.11
2016-05-29T01:13:59.350Z,91.44
2016-05-29T01:14:09.506Z,92.01
2016-05-29T01:14:19.522Z,92.11
2016-05-29T01:14:29.522Z,92.21
2016-05-29T01:14:39.522Z,92.21
2016-05-29T01:14:49.540Z,92.21
2016-05-29T01:14:59.556Z,92.21
2016-05-29T01:15:09.556Z,92.4
2016-05-29T01:15:19.556Z,92.21
2016-05-29T01:15:29.556Z,92.21
2016-05-29T01:15:39.556Z,92.21
2016-05-29T01:15:49.575Z,92.21
2016-05-29T01:15:59.559Z,92.49
2016-05-29T01:16:09.575Z,93.26
2016-05-29T01:16:19.575Z,93.07
2016-05-29T01:16:29.575Z,92.78
2016-05-29T01:16:39.590Z,92.68
2016-05-29T01:16:49.592Z,92.87
2016-05-29T01:16:59.592Z,93.16
2016-05-29T01:17:09.608Z,93.45
2016-05-29T01:17:19.452Z,93.5
2016-05-29T01:17:29.608Z,93.5
2016-05-29T01:17:39.608Z,93.26
2016-05-29T01:17:49.627Z,93.3
2016-05-29T01:17:59.627Z,93.45
2016-05-29T01:18:09.642Z,93.93
2016-05-29T01:18:19.642Z,94.02
2016-05-29T01:18:29.642Z,93.79
2016-05-29T01:18:39.673Z,93.79
2016-05-29T01:18:49.661Z,93.59
2016-05-29T01:18:59.661Z,94.17
2016-05-29T01:19:09.676Z,94.26
2016-05-29T01:19:19.676Z,94.17
2016-05-29T01:19:29.676Z,94.07
2016-05-29T01:19:39.676Z,94.17
2016-05-29T01:19:49.678Z,94.65
2016-05-29T01:19:59.694Z,94.55
2016-05-29T01:20:09.538Z,94.55
2016-05-29T01:20:19.944Z,94.84
2016-05-29T01:20:29.710Z,94.55
2016-05-29T01:20:39.710Z,94.93
2016-05-29T01:20:49.588Z,94.84
2016-05-29T01:20:59.728Z,95.12
2016-05-29T01:21:09.572Z,94.26
2016-05-29T01:21:19.728Z,94.55
2016-05-29T01:21:29.588Z,94.93
2016-05-29T01:21:39.744Z,94.84
2016-05-29T01:21:49.747Z,95.41
2016-05-29T01:21:59.747Z,95.31
2016-05-29T01:22:09.763Z,95.31
2016-05-29T01:22:19.763Z,95.61
2016-05-29T01:22:29.606Z,95.12
2016-05-29T01:22:39.763Z,94.84
2016-05-29T01:22:49.780Z,94.93
2016-05-29T01:22:59.780Z,95.03
2016-05-29T01:23:09.780Z,95.79
2016-05-29T01:23:19.624Z,95.79
2016-05-29T01:23:29.796Z,95.98
2016-05-29T01:23:39.796Z,95.41
2016-05-29T01:23:49.814Z,95.98
2016-05-29T01:23:59.814Z,96.08
2016-05-29T01:24:09.674Z,95.79
2016-05-29T01:24:19.830Z,95.89
2016-05-29T01:24:29.830Z,96.18
2016-05-29T01:24:39.830Z,96.08
2016-05-29T01:24:49.833Z,96.37
2016-05-29T01:24:59.849Z,96.37
2016-05-29T01:25:09.849Z,96.18
2016-05-29T01:25:19.692Z,96.56
2016-05-29T01:25:29.849Z,96.66
2016-05-29T01:25:39.864Z,96.66
2016-05-29T01:25:49.867Z,96.66
2016-05-29T01:25:59.867Z,96.56
2016-05-29T01:26:09.883Z,96.66
2016-05-29T01:26:19.727Z,96.56
2016-05-29T01:26:29.883Z,96.56
2016-05-29T01:26:39.899Z,96.47
2016-05-29T01:26:49.760Z,96.56
2016-05-29T01:26:59.901Z,96.94
2016-05-29T01:27:09.916Z,96.84
2016-05-29T01:27:19.916Z,97.23
2016-05-29T01:27:29.916Z,97.13
2016-05-29T01:27:39.916Z,97.13
2016-05-29T01:27:49.935Z,96.66
2016-05-29T01:27:59.935Z,97.33
2016-05-29T01:28:09.950Z,97.13
2016-05-29T01:28:19.950Z,97.13
2016-05-29T01:28:29.794Z,97.23
2016-05-29T01:28:39.966Z,97.52
2016-05-29T01:28:49.953Z,97.33
2016-05-29T01:28:59.969Z,97.52
2016-05-29T01:29:09.969Z,97.61
2016-05-29T01:29:19.969Z,97.71
2016-05-29T01:29:29.985Z,97.61
2016-05-29T01:29:39.985Z,97.33
2016-05-29T01:29:49.831Z,97.61
2016-05-29T01:29:59.847Z,97.33
2016-05-29T01:30:10.003Z,97.71
2016-05-29T01:30:20.003Z,98.28
2016-05-29T01:30:30.019Z,98
2016-05-29T01:30:40.035Z,98
2016-05-29T01:30:50.021Z,98.19
2016-05-29T01:31:00.021Z,97.9
2016-05-29T01:31:10.021Z,98.19
2016-05-29T01:31:19.880Z,98
2016-05-29T01:31:30.037Z,98.09
2016-05-29T01:31:40.037Z,98.47
2016-05-29T01:31:50.055Z,98.19
2016-05-29T01:32:00.055Z,98.38
2016-05-29T01:32:10.055Z,98.19
2016-05-29T01:32:20.055Z,98.28
2016-05-29T01:32:30.071Z,98.38
2016-05-29T01:32:40.071Z,98.19
2016-05-29T01:32:50.089Z,98.09
2016-05-29T01:33:00.089Z,98.28
2016-05-29T01:33:10.089Z,98.19
2016-05-29T01:33:20.089Z,98
2016-05-29T01:33:30.089Z,98
2016-05-29T01:33:40.105Z,98.66
2016-05-29T01:33:50.107Z,98.47
2016-05-29T01:34:00.123Z,98.47
2016-05-29T01:34:09.966Z,98.86
2016-05-29T01:34:20.123Z,98.28
2016-05-29T01:34:30.138Z,98.47
2016-05-29T01:34:40.138Z,98.38
2016-05-29T01:34:50.141Z,98.19
2016-05-29T01:35:00.141Z,98
2016-05-29T01:35:10.954Z,98.19
2016-05-29T01:35:20.157Z,97.8
2016-05-29T01:35:30.407Z,98.66
2016-05-29T01:35:40.173Z,98.66
2016-05-29T01:35:50.176Z,98.57
2016-05-29T01:36:00.472Z,98.86
2016-05-29T01:36:10.191Z,98.66
2016-05-29T01:36:20.035Z,98.86
2016-05-29T01:36:30.191Z,99.05
2016-05-29T01:36:40.191Z,98.86
2016-05-29T01:36:50.209Z,98.76
2016-05-29T01:37:00.209Z,98.95
2016-05-29T01:37:10.209Z,99.05
2016-05-29T01:37:20.224Z,98.66
2016-05-29T01:37:30.224Z,98.86
2016-05-29T01:37:40.224Z,98.76
2016-05-29T01:37:50.227Z,98.95
2016-05-29T01:38:00.259Z,98.57
2016-05-29T01:38:10.243Z,98.57
2016-05-29T01:38:20.243Z,98.76
2016-05-29T01:38:30.102Z,99.24
2016-05-29T01:38:40.259Z,99.24
2016-05-29T01:38:50.277Z,99.24
2016-05-29T01:39:00.262Z,99.33
2016-05-29T01:39:10.277Z,99.15
2016-05-29T01:39:20.277Z,99.15
2016-05-29T01:39:30.277Z,99.05
2016-05-29T01:39:40.277Z,99.05
2016-05-29T01:39:50.279Z,99.24
2016-05-29T01:40:00.295Z,99.05
2016-05-29T01:40:10.295Z,99.05
2016-05-29T01:40:20.311Z,99.52
2016-05-29T01:40:30.311Z,99.43
2016-05-29T01:40:40.170Z,99.43
2016-05-29T01:40:50.329Z,99.43
2016-05-29T01:41:00.345Z,99.43
2016-05-29T01:41:10.189Z,99.43
2016-05-29T01:41:20.345Z,99.15
2016-05-29T01:41:30.189Z,99.24
2016-05-29T01:41:40.345Z,99.24
2016-05-29T01:41:50.348Z,99.24
2016-05-29T01:42:00.379Z,99.33
2016-05-29T01:42:10.363Z,99.43
2016-05-29T01:42:20.207Z,99.15
2016-05-29T01:42:30.363Z,99.24
2016-05-29T01:42:40.223Z,99.24
2016-05-29T01:42:50.381Z,99.33
2016-05-29T01:43:00.397Z,99.33
2016-05-29T01:43:10.397Z,99.33
2016-05-29T01:43:20.240Z,99.33
2016-05-29T01:43:30.397Z,99.33
2016-05-29T01:43:40.412Z,99.52
2016-05-29T01:43:50.415Z,99.33
2016-05-29T01:44:00.415Z,99.52
2016-05-29T01:44:10.259Z,99.52
2016-05-29T01:44:20.447Z,99.52
2016-05-29T01:44:30.275Z,99.91
2016-05-29T01:44:40.431Z,99.81
2016-05-29T01:44:50.450Z,99.91
2016-05-29T01:45:00.450Z,99.52
2016-05-29T01:45:10.450Z,99.72
2016-05-29T01:45:20.450Z,99.81
2016-05-29T01:45:30.465Z,99.62
2016-05-29T01:45:40.481Z,99.72
2016-05-29T01:45:50.468Z,99.81
2016-05-29T01:46:00.484Z,99.99
2016-05-29T01:46:10.484Z,99.72
2016-05-29T01:46:20.343Z,99.81
2016-05-29T01:46:30.499Z,99.72
2016-05-29T01:46:40.499Z,99.72
2016-05-29T01:46:50.361Z,99.72
2016-05-29T01:47:00.501Z,99.72
2016-05-29T01:47:10.517Z,99.81
2016-05-29T01:47:20.517Z,99.81
2016-05-29T01:47:30.533Z,99.81
2016-05-29T01:47:40.533Z,99.72
2016-05-29T01:47:50.536Z,99.62
2016-05-29T01:48:00.536Z,99.52
2016-05-29T01:48:10.536Z,99.72
2016-05-29T01:48:20.567Z,99.72
2016-05-29T01:48:30.551Z,99.99
2016-05-29T01:48:40.583Z,99.99
2016-05-29T01:48:50.569Z,99.99
2016-05-29T01:49:00.569Z,99.99
2016-05-29T01:49:10.585Z,99.99
2016-05-29T01:49:20.569Z,99.99
2016-05-29T01:49:30.585Z,99.99
2016-05-29T01:49:40.585Z,99.99
2016-05-29T01:49:50.603Z,99.99
2016-05-29T01:50:00.603Z,99.99
2016-05-29T01:50:11.884Z,99.99
2016-05-29T01:50:20.619Z,99.99
2016-05-29T01:50:30.994Z,99.99
2016-05-29T01:50:40.619Z,99.91
2016-05-29T01:50:50.669Z,99.99
2016-05-29T01:51:01.325Z,99.99
2016-05-29T01:51:10.637Z,99.99
2016-05-29T01:51:20.637Z,99.99
2016-05-29T01:51:30.637Z,99.99
2016-05-29T01:51:40.653Z,99.99
2016-05-29T01:51:50.499Z,99.99
2016-05-29T01:52:00.655Z,99.99
2016-05-29T01:52:10.671Z,99.91
2016-05-29T01:52:20.671Z,99.99
2016-05-29T01:52:30.671Z,99.99
2016-05-29T01:52:40.686Z,99.99
2016-05-29T01:52:50.689Z,99.99
2016-05-29T01:53:00.689Z,99.99
2016-05-29T01:53:10.705Z,99.99
2016-05-29T01:53:20.705Z,99.99
2016-05-29T01:53:30.705Z,99.99
2016-05-29T01:53:40.721Z,99.99
2016-05-29T01:53:50.724Z,99.99
2016-05-29T01:54:00.724Z,99.99
2016-05-29T01:54:10.724Z,99.99
2016-05-29T01:54:20.583Z,99.99
2016-05-29T01:54:30.739Z,99.99
2016-05-29T01:54:40.739Z,99.99
2016-05-29T01:54:50.741Z,99.99
2016-05-29T01:55:00.757Z,99.99
2016-05-29T01:55:10.601Z,99.99
2016-05-29T01:55:20.772Z,99.99
2016-05-29T01:55:30.772Z,99.99
2016-05-29T01:55:40.772Z,99.99
2016-05-29T01:55:50.775Z,99.99
2016-05-29T01:56:00.775Z,99.99
2016-05-29T01:56:10.791Z,99.99
2016-05-29T01:56:20.791Z,99.99
2016-05-29T01:56:30.791Z,99.99
2016-05-29T01:56:40.791Z,99.99
2016-05-29T01:56:50.810Z,99.99
2016-05-29T01:57:00.825Z,99.99
2016-05-29T01:57:10.825Z,99.99
2016-05-29T01:57:20.825Z,99.99
2016-05-29T01:57:30.825Z,99.99
2016-05-29T01:57:40.825Z,99.99
2016-05-29T01:57:50.843Z,99.99
2016-05-29T01:58:00.843Z,99.99
2016-05-29T01:58:10.859Z,99.99
2016-05-29T01:58:20.859Z,99.99
2016-05-29T01:58:30.859Z,99.99
2016-05-29T01:58:40.859Z,99.99
2016-05-29T01:58:50.722Z,99.99
2016-05-29T01:59:00.863Z,99.99
2016-05-29T01:59:10.878Z,99.99
2016-05-29T01:59:20.878Z,99.99
2016-05-29T01:59:30.878Z,99.99
2016-05-29T01:59:40.894Z,99.99
2016-05-29T01:59:50.896Z,99.99
2016-05-29T02:00:00.911Z,99.99
2016-05-29T02:00:10.927Z,99.99
2016-05-29T02:00:20.911Z,99.99
2016-05-29T02:00:30.927Z,99.99
2016-05-29T02:00:40.911Z,99.99
2016-05-29T02:00:50.774Z,99.99
2016-05-29T02:01:00.930Z,99.99
2016-05-29T02:01:10.946Z,99.99
2016-05-29T02:01:20.946Z,99.99
2016-05-29T02:01:30.946Z,99.99
2016-05-29T02:01:40.946Z,99.99
2016-05-29T02:01:50.948Z,99.99
2016-05-29T02:02:00.963Z,99.99
2016-05-29T02:02:10.979Z,99.99
2016-05-29T02:02:20.963Z,99.99
2016-05-29T02:02:30.979Z,99.99
2016-05-29T02:02:40.979Z,99.99
2016-05-29T02:02:50.982Z,99.99
2016-05-29T02:03:00.998Z,99.99
2016-05-29T02:03:10.998Z,99.99
2016-05-29T02:03:20.998Z,99.99
2016-05-29T02:03:30.998Z,99.99
2016-05-29T02:03:41.013Z,99.99
2016-05-29T02:03:51.016Z,99.99
2016-05-29T02:04:00.876Z,99.99
2016-05-29T02:04:11.032Z,99.99
2016-05-29T02:04:21.032Z,99.99
2016-05-29T02:04:31.032Z,99.99
2016-05-29T02:04:41.047Z,99.99
2016-05-29T02:04:50.894Z,99.99
2016-05-29T02:05:01.050Z,99.99
2016-05-29T02:05:11.707Z,99.99
2016-05-29T02:05:20.910Z,99.99
2016-05-29T02:05:31.066Z,99.99
2016-05-29T02:05:42.004Z,99.99
2016-05-29T02:05:50.928Z,99.99
2016-05-29T02:06:01.085Z,99.99
2016-05-29T02:06:11.100Z,99.99
2016-05-29T02:06:22.100Z,99.99
2016-05-29T02:06:31.100Z,99.99
2016-05-29T02:06:41.100Z,99.99
2016-05-29T02:06:51.101Z,99.99
2016-05-29T02:07:01.117Z,99.99
2016-05-29T02:07:11.117Z,99.99
2016-05-29T02:07:21.133Z,99.99
2016-05-29T02:07:31.133Z,99.99
2016-05-29T02:07:41.133Z,99.99
2016-05-29T02:07:51.137Z,99.99
2016-05-29T02:08:00.980Z,99.99
2016-05-29T02:08:11.168Z,99.99
2016-05-29T02:08:21.152Z,99.99
2016-05-29T02:08:31.152Z,99.99
2016-05-29T02:08:41.168Z,99.99
2016-05-29T02:08:51.171Z,99.99
2016-05-29T02:09:01.171Z,99.99
2016-05-29T02:09:11.202Z,99.99
2016-05-29T02:09:21.186Z,99.99